Time;durP1;ratioP1;P1;durP2;ratioP2;P2;SDS_P1;SDS_P2;PMS_P1;PMS_P2;Temp;Humidity;BMP_temperature;BMP_pressure;BME280_temperature;BME280_humidity;BME280_pressure;Samples;Min_cycle;Max_cycle;Signal;HPM_P1;HPM_P2
2023/10/30 00:00:48;;;;;;;8.25;1.60;;;11.50;99.90;;;;;;5015427;28;20191;-68
2023/10/30 00:03:14;;;;;;;5.72;1.73;;;11.40;99.90;;;;;;5034191;28;20180;-63
2023/10/30 00:05:41;;;;;;;7.25;1.85;;;11.40;99.90;;;;;;5035461;28;20340;-68
2023/10/30 00:08:06;;;;;;;10.00;2.03;;;11.40;99.90;;;;;;5035167;28;20269;-65
2023/10/30 00:10:35;;;;;;;9.38;1.77;;;11.30;99.90;;;;;;5017622;28;20270;-62
2023/10/30 00:13:01;;;;;;;8.77;2.10;;;11.30;99.90;;;;;;5035421;28;20172;-61
2023/10/30 00:15:27;;;;;;;9.47;1.80;;;11.30;99.90;;;;;;5035587;28;20279;-65
2023/10/30 00:17:52;;;;;;;10.95;2.05;;;11.20;99.90;;;;;;5035162;28;20658;-65
2023/10/30 00:20:19;;;;;;;9.43;1.95;;;11.20;99.90;;;;;;5034961;28;20184;-62
2023/10/30 00:22:45;;;;;;;10.40;1.90;;;11.10;99.90;;;;;;5034958;28;20232;-68
2023/10/30 00:25:11;;;;;;;7.25;1.80;;;11.10;99.90;;;;;;5035428;28;20531;-61
2023/10/30 00:27:37;;;;;;;13.18;2.00;;;11.10;99.90;;;;;;5034904;28;20537;-60
2023/10/30 00:30:03;;;;;;;5.43;1.90;;;11.10;99.90;;;;;;5034883;28;20633;-66
2023/10/30 00:32:30;;;;;;;14.25;2.00;;;11.10;99.90;;;;;;5035025;28;20264;-61
2023/10/30 00:34:56;;;;;;;9.38;2.00;;;11.00;99.90;;;;;;5034790;28;20195;-64
2023/10/30 00:37:23;;;;;;;7.78;1.63;;;11.00;99.90;;;;;;5017204;28;20243;-61
2023/10/30 00:39:49;;;;;;;6.72;1.50;;;11.00;99.90;;;;;;5017835;28;20195;-67
2023/10/30 00:42:15;;;;;;;8.63;1.55;;;10.90;99.90;;;;;;5034799;28;20640;-63
2023/10/30 00:44:41;;;;;;;9.32;1.77;;;10.90;99.90;;;;;;5034688;28;20188;-61
2023/10/30 00:47:06;;;;;;;7.03;1.70;;;10.90;99.90;;;;;;5033078;28;20271;-61
2023/10/30 00:49:33;;;;;;;12.20;1.60;;;10.90;99.90;;;;;;5016822;28;20219;-66
2023/10/30 00:51:59;;;;;;;7.22;1.63;;;10.90;99.90;;;;;;5032913;28;20176;-62
2023/10/30 00:54:25;;;;;;;8.35;1.73;;;10.80;99.90;;;;;;5034149;28;20250;-62
2023/10/30 00:56:51;;;;;;;5.15;1.83;;;10.80;99.90;;;;;;5034375;28;20212;-66
2023/10/30 00:59:17;;;;;;;5.13;1.40;;;10.80;99.90;;;;;;5034140;28;20637;-60
2023/10/30 01:01:43;;;;;;;3.70;1.45;;;10.80;99.90;;;;;;5034390;28;20183;-62
2023/10/30 01:04:09;;;;;;;7.53;1.70;;;10.70;99.90;;;;;;5016664;28;20576;-63
2023/10/30 01:06:35;;;;;;;7.72;1.77;;;10.70;99.90;;;;;;5034170;28;20184;-68
2023/10/30 01:09:00;;;;;;;6.22;1.40;;;10.70;99.90;;;;;;5034751;28;20623;-60
2023/10/30 01:11:26;;;;;;;7.30;1.63;;;10.60;99.90;;;;;;5034194;28;20187;-60
2023/10/30 01:13:53;;;;;;;3.72;1.38;;;10.70;99.90;;;;;;5034902;28;20190;-63
2023/10/30 01:16:19;;;;;;;4.20;1.40;;;10.60;99.90;;;;;;5033148;28;20290;-62
2023/10/30 01:18:45;;;;;;;8.35;1.58;;;10.60;99.90;;;;;;5016492;28;20179;-60
2023/10/30 01:21:15;;;;;;;4.50;1.60;;;10.60;99.90;;;;;;5033611;28;20194;-65
2023/10/30 01:23:40;;;;;;;6.07;1.55;;;10.60;99.90;;;;;;5033960;28;20211;-60
2023/10/30 01:26:06;;;;;;;5.07;1.23;;;10.60;99.90;;;;;;5033638;28;20179;-68
2023/10/30 01:28:32;;;;;;;8.90;1.75;;;10.50;99.90;;;;;;5032717;28;20191;-64
2023/10/30 01:30:59;;;;;;;5.00;1.40;;;10.50;99.90;;;;;;5016048;28;20180;-61
2023/10/30 01:33:25;;;;;;;5.05;1.42;;;10.50;99.90;;;;;;5015876;28;20198;-62
2023/10/30 01:35:52;;;;;;;8.68;1.77;;;10.50;99.90;;;;;;5016124;28;20739;-62
2023/10/30 01:38:18;;;;;;;3.95;1.40;;;10.50;99.90;;;;;;5033558;28;20188;-62
2023/10/30 01:40:48;;;;;;;5.05;1.60;;;10.50;99.90;;;;;;5033462;28;20323;-66
2023/10/30 01:43:14;;;;;;;10.43;1.40;;;10.50;99.90;;;;;;5015634;28;20187;-63
2023/10/30 01:45:40;;;;;;;4.90;1.52;;;10.50;99.90;;;;;;5015749;28;20184;-62
2023/10/30 01:48:06;;;;;;;8.18;1.80;;;10.50;99.90;;;;;;5033624;28;20249;-62
2023/10/30 01:50:33;;;;;;;6.35;1.70;;;10.50;99.90;;;;;;5033840;28;20176;-68
2023/10/30 01:53:01;;;;;;;6.95;1.80;;;10.50;99.90;;;;;;5016216;28;20651;-61
2023/10/30 01:55:28;;;;;;;7.47;1.80;;;10.40;99.90;;;;;;5033597;28;20188;-63
2023/10/30 01:57:55;;;;;;;4.85;1.77;;;10.40;99.90;;;;;;5016037;28;20271;-62
2023/10/30 02:00:21;;;;;;;6.95;2.00;;;10.40;99.90;;;;;;5015491;28;20176;-65
2023/10/30 02:02:50;;;;;;;8.80;1.98;;;10.40;99.90;;;;;;5015872;28;20203;-66
2023/10/30 02:05:17;;;;;;;6.68;2.20;;;10.40;99.90;;;;;;5015436;28;20638;-62
2023/10/30 02:07:43;;;;;;;8.43;2.00;;;10.40;99.90;;;;;;5033261;28;20172;-62
2023/10/30 02:10:11;;;;;;;7.85;2.00;;;10.50;99.90;;;;;;5033234;28;20587;-61
2023/10/30 02:12:37;;;;;;;5.90;2.03;;;10.50;99.90;;;;;;5015814;28;20607;-65
2023/10/30 02:15:04;;;;;;;4.85;2.15;;;10.40;99.90;;;;;;5031824;28;20190;-63
2023/10/30 02:17:31;;;;;;;8.73;2.45;;;10.40;99.90;;;;;;5033448;28;20603;-61
2023/10/30 02:19:57;;;;;;;6.03;2.10;;;10.40;99.90;;;;;;5015126;28;20272;-68
2023/10/30 02:22:23;;;;;;;6.63;2.08;;;10.40;99.90;;;;;;5032822;28;20176;-64
2023/10/30 02:24:49;;;;;;;6.30;1.85;;;10.40;99.90;;;;;;5014680;28;20180;-62
2023/10/30 02:27:17;;;;;;;6.00;2.00;;;10.30;99.90;;;;;;5032558;28;20191;-64
2023/10/30 02:29:43;;;;;;;9.02;2.40;;;10.30;99.90;;;;;;5033042;28;20221;-63
2023/10/30 02:32:09;;;;;;;6.60;2.10;;;10.30;99.90;;;;;;5033083;28;20186;-64
2023/10/30 02:34:35;;;;;;;5.25;2.20;;;10.30;99.90;;;;;;5015298;28;20184;-63
2023/10/30 02:37:02;;;;;;;8.60;2.28;;;10.20;99.90;;;;;;5032701;28;20410;-62
2023/10/30 02:39:32;;;;;;;7.22;2.35;;;10.20;99.90;;;;;;5032845;28;20246;-64
2023/10/30 02:41:59;;;;;;;8.98;2.55;;;10.20;99.90;;;;;;4998994;28;20604;-65
2023/10/30 02:44:28;;;;;;;7.95;2.50;;;10.20;99.90;;;;;;5032813;28;20250;-67
2023/10/30 02:46:55;;;;;;;9.00;2.70;;;10.20;99.90;;;;;;5015011;28;20172;-63
2023/10/30 02:49:21;;;;;;;7.95;2.72;;;10.20;99.90;;;;;;5032207;28;20172;-67
2023/10/30 02:51:46;;;;;;;5.90;2.50;;;10.20;99.90;;;;;;5032512;28;20275;-61
2023/10/30 02:54:12;;;;;;;9.45;2.60;;;10.20;99.90;;;;;;5032395;28;20266;-62
2023/10/30 02:56:38;;;;;;;7.05;2.38;;;10.20;99.90;;;;;;5032683;28;20266;-61
2023/10/30 02:59:04;;;;;;;8.30;2.58;;;10.20;99.90;;;;;;5032355;28;20671;-65
2023/10/30 03:01:30;;;;;;;10.68;2.75;;;10.20;99.90;;;;;;5032489;28;20480;-64
2023/10/30 03:03:56;;;;;;;11.15;2.58;;;10.10;99.90;;;;;;5014375;28;20286;-64
2023/10/30 03:06:22;;;;;;;7.30;2.58;;;10.10;99.90;;;;;;5014341;28;20215;-62
2023/10/30 03:08:48;;;;;;;10.20;2.83;;;10.10;99.90;;;;;;5032450;28;20732;-62
2023/10/30 03:11:14;;;;;;;7.57;2.45;;;10.20;99.90;;;;;;5014850;28;20180;-66
2023/10/30 03:13:40;;;;;;;10.75;2.90;;;10.10;99.90;;;;;;5014364;28;20241;-61
2023/10/30 03:16:06;;;;;;;9.48;3.00;;;10.20;99.90;;;;;;5030458;28;20743;-67
2023/10/30 03:18:32;;;;;;;11.40;2.67;;;10.20;99.90;;;;;;5032156;28;20283;-61
2023/10/30 03:20:58;;;;;;;18.73;3.30;;;10.20;99.90;;;;;;5031647;28;20262;-65
2023/10/30 03:23:24;;;;;;;8.57;2.30;;;10.20;99.90;;;;;;5032438;28;20180;-62
2023/10/30 03:25:50;;;;;;;11.05;2.60;;;10.30;99.90;;;;;;5032058;28;20191;-65
2023/10/30 03:28:15;;;;;;;8.15;2.70;;;10.30;99.90;;;;;;5031936;28;20573;-66
2023/10/30 03:30:41;;;;;;;8.52;2.67;;;10.40;99.90;;;;;;5014428;28;20183;-64
2023/10/30 03:33:08;;;;;;;15.30;3.03;;;10.40;99.90;;;;;;5031542;28;20179;-61
2023/10/30 03:35:38;;;;;;;12.68;2.75;;;10.40;99.90;;;;;;5013924;28;20176;-61
2023/10/30 03:38:05;;;;;;;9.82;2.50;;;10.40;99.90;;;;;;5015293;28;20278;-64
2023/10/30 03:40:31;;;;;;;15.10;2.88;;;10.40;99.90;;;;;;5032651;28;20180;-63
2023/10/30 03:42:57;;;;;;;10.00;2.83;;;10.40;99.90;;;;;;5015193;28;20191;-62
2023/10/30 03:45:23;;;;;;;14.40;2.90;;;10.30;99.90;;;;;;5032473;28;20569;-65
2023/10/30 03:47:49;;;;;;;19.40;2.80;;;10.30;99.90;;;;;;5032947;28;20262;-60
2023/10/30 03:50:16;;;;;;;10.75;3.00;;;10.30;99.90;;;;;;5032066;28;20182;-66
2023/10/30 03:52:43;;;;;;;18.02;3.10;;;10.30;99.90;;;;;;4998244;28;20253;-67
2023/10/30 03:55:10;;;;;;;13.27;2.70;;;10.30;99.90;;;;;;5032761;28;20257;-64
2023/10/30 03:57:36;;;;;;;8.30;2.45;;;10.20;99.90;;;;;;5032436;28;20208;-63
2023/10/30 04:00:03;;;;;;;9.27;2.88;;;10.20;99.90;;;;;;5032689;28;20188;-61
2023/10/30 04:02:37;;;;;;;9.35;2.30;;;10.20;99.90;;;;;;5032459;28;20636;-63
2023/10/30 04:05:03;;;;;;;16.08;2.78;;;10.20;99.90;;;;;;5014273;28;20475;-61
2023/10/30 04:07:30;;;;;;;18.55;2.72;;;10.20;99.90;;;;;;5014414;28;20597;-68
2023/10/30 04:09:56;;;;;;;12.48;2.50;;;10.20;99.90;;;;;;5013665;28;20227;-64
2023/10/30 04:12:22;;;;;;;13.57;2.75;;;10.20;99.90;;;;;;5031841;28;20211;-66
2023/10/30 04:14:48;;;;;;;14.65;2.72;;;10.20;99.90;;;;;;5013757;28;20234;-63
2023/10/30 04:17:14;;;;;;;12.77;2.97;;;10.20;99.90;;;;;;5031111;28;20619;-61
2023/10/30 04:19:40;;;;;;;11.02;2.75;;;10.20;99.90;;;;;;5031194;28;20310;-59
2023/10/30 04:22:06;;;;;;;14.90;2.88;;;10.20;99.90;;;;;;5031804;28;20623;-64
2023/10/30 04:24:32;;;;;;;12.10;2.67;;;10.20;99.90;;;;;;5031532;28;20176;-62
2023/10/30 04:26:58;;;;;;;18.30;2.70;;;10.20;99.90;;;;;;5031262;28;20190;-60
2023/10/30 04:29:23;;;;;;;10.30;2.42;;;10.20;99.90;;;;;;5031634;28;20196;-65
2023/10/30 04:31:49;;;;;;;12.27;2.42;;;10.20;99.90;;;;;;5031348;28;20365;-63
2023/10/30 04:34:16;;;;;;;12.15;2.67;;;10.20;99.90;;;;;;5031163;28;20202;-64
2023/10/30 04:36:42;;;;;;;15.10;2.50;;;10.20;99.90;;;;;;5031378;28;20203;-67
2023/10/30 04:39:10;;;;;;;13.05;2.53;;;10.20;99.90;;;;;;5031042;28;20172;-62
2023/10/30 04:41:36;;;;;;;12.75;2.65;;;10.20;99.90;;;;;;5031431;28;20267;-66
2023/10/30 04:44:03;;;;;;;13.68;3.05;;;10.20;99.90;;;;;;5013562;28;20180;-63
2023/10/30 04:46:29;;;;;;;10.52;2.60;;;10.20;99.90;;;;;;5031955;28;20188;-62
2023/10/30 04:48:55;;;;;;;12.23;2.58;;;10.20;99.90;;;;;;5033425;28;20267;-61
2023/10/30 04:51:21;;;;;;;16.00;2.70;;;10.20;99.90;;;;;;5017024;28;20273;-65
2023/10/30 04:53:47;;;;;;;12.48;2.53;;;10.20;99.90;;;;;;5034895;28;20179;-64
2023/10/30 04:56:13;;;;;;;16.17;2.90;;;10.20;99.90;;;;;;5016697;28;20601;-66
2023/10/30 04:58:39;;;;;;;13.75;2.55;;;10.20;99.90;;;;;;5016770;28;20223;-62
2023/10/30 05:01:09;;;;;;;11.25;2.83;;;10.30;99.90;;;;;;5034640;28;20183;-62
2023/10/30 05:03:38;;;;;;;16.38;2.72;;;10.30;99.90;;;;;;5033400;28;20176;-64
2023/10/30 05:06:04;;;;;;;16.55;2.90;;;10.30;99.90;;;;;;5034398;28;20180;-66
2023/10/30 05:08:31;;;;;;;12.60;2.65;;;10.20;99.90;;;;;;5034136;28;20634;-66
2023/10/30 05:11:01;;;;;;;17.60;2.90;;;10.30;99.90;;;;;;5016859;28;20604;-64
2023/10/30 05:13:27;;;;;;;17.65;2.80;;;10.20;99.90;;;;;;5034419;28;20222;-65
2023/10/30 05:15:56;;;;;;;11.48;2.53;;;10.30;99.90;;;;;;5033177;28;20589;-61
2023/10/30 05:18:28;;;;;;;17.08;3.30;;;10.20;99.90;;;;;;5034298;28;20188;-60
2023/10/30 05:20:54;;;;;;;16.20;3.17;;;10.30;99.90;;;;;;5016379;28;20255;-68
2023/10/30 05:23:20;;;;;;;13.85;3.05;;;10.20;99.90;;;;;;5034194;28;20612;-62
2023/10/30 05:25:46;;;;;;;15.63;2.60;;;10.30;99.90;;;;;;5034482;28;20176;-64
2023/10/30 05:28:13;;;;;;;11.45;2.80;;;10.30;99.90;;;;;;5034270;28;20190;-65
2023/10/30 05:30:39;;;;;;;15.73;2.92;;;10.30;99.90;;;;;;5016544;28;20176;-62
2023/10/30 05:33:05;;;;;;;12.25;2.70;;;10.30;99.90;;;;;;5034460;28;20183;-65
2023/10/30 05:35:31;;;;;;;12.85;2.65;;;10.30;99.90;;;;;;5034336;28;20188;-65
2023/10/30 05:37:58;;;;;;;13.57;2.80;;;10.30;99.90;;;;;;5034116;28;20295;-61
2023/10/30 05:40:24;;;;;;;13.27;2.97;;;10.20;99.90;;;;;;5016231;28;20199;-68
2023/10/30 05:42:50;;;;;;;15.68;2.75;;;10.20;99.90;;;;;;5016342;28;20184;-66
2023/10/30 05:45:16;;;;;;;8.10;2.67;;;10.20;99.90;;;;;;5032677;28;20594;-61
2023/10/30 05:47:42;;;;;;;15.55;2.65;;;10.20;99.90;;;;;;5032786;28;20183;-65
2023/10/30 05:50:09;;;;;;;11.10;2.58;;;10.10;99.90;;;;;;5033825;28;20215;-61
2023/10/30 05:52:35;;;;;;;15.93;2.70;;;10.10;99.90;;;;;;5032136;28;20180;-67
2023/10/30 05:55:02;;;;;;;12.32;2.63;;;10.10;99.90;;;;;;5032041;28;20195;-61
2023/10/30 05:57:29;;;;;;;15.05;2.65;;;10.10;99.90;;;;;;5033509;28;20203;-67
2023/10/30 05:59:54;;;;;;;14.90;2.90;;;10.10;99.90;;;;;;5032444;28;20187;-65
2023/10/30 06:02:20;;;;;;;14.45;2.60;;;10.10;99.90;;;;;;5016030;28;20253;-60
2023/10/30 06:04:46;;;;;;;19.15;2.75;;;10.10;99.90;;;;;;5033952;28;20179;-64
2023/10/30 06:07:12;;;;;;;15.52;3.03;;;10.10;99.90;;;;;;5033314;28;20188;-64
2023/10/30 06:09:38;;;;;;;15.57;3.38;;;10.00;99.90;;;;;;5033227;28;20289;-61
2023/10/30 06:12:05;;;;;;;13.55;2.78;;;10.10;99.90;;;;;;5033738;28;20188;-63
2023/10/30 06:14:30;;;;;;;15.18;2.90;;;10.10;99.90;;;;;;5033239;28;20183;-61
2023/10/30 06:16:58;;;;;;;12.13;2.33;;;10.00;99.90;;;;;;5015185;28;20211;-59
2023/10/30 06:19:24;;;;;;;11.30;2.63;;;10.00;99.90;;;;;;5015357;28;20198;-61
2023/10/30 06:21:50;;;;;;;13.20;2.90;;;10.00;99.90;;;;;;5015704;28;20184;-62
2023/10/30 06:24:16;;;;;;;15.07;2.80;;;10.00;99.90;;;;;;5033553;28;20195;-62
2023/10/30 06:26:42;;;;;;;12.60;2.80;;;10.00;99.90;;;;;;5032599;28;20567;-67
2023/10/30 06:29:09;;;;;;;10.77;2.58;;;10.00;99.90;;;;;;5032606;28;20182;-62
2023/10/30 06:31:35;;;;;;;15.30;2.42;;;10.00;99.90;;;;;;5032369;28;20183;-64
2023/10/30 06:34:01;;;;;;;10.98;2.92;;;10.00;99.90;;;;;;5014821;28;20175;-61
2023/10/30 06:36:28;;;;;;;10.35;2.50;;;10.00;99.90;;;;;;5014489;28;20224;-62
2023/10/30 06:38:57;;;;;;;9.73;2.60;;;10.00;99.90;;;;;;5032855;28;20190;-65
2023/10/30 06:41:23;;;;;;;16.13;2.58;;;10.00;99.90;;;;;;5033165;28;20183;-67
2023/10/30 06:43:51;;;;;;;14.20;2.63;;;10.00;99.90;;;;;;5015585;28;20176;-65
2023/10/30 06:46:16;;;;;;;9.85;2.42;;;10.00;99.90;;;;;;5032614;28;20176;-61
2023/10/30 06:48:42;;;;;;;16.13;2.78;;;10.00;99.90;;;;;;5033068;28;20180;-63
2023/10/30 06:51:08;;;;;;;16.40;2.67;;;10.00;99.90;;;;;;5032089;28;20243;-65
2023/10/30 06:53:34;;;;;;;15.35;2.80;;;10.10;99.90;;;;;;5032846;28;20644;-62
2023/10/30 06:56:00;;;;;;;12.60;2.30;;;10.10;99.90;;;;;;5014888;28;20176;-62
2023/10/30 06:58:26;;;;;;;14.35;2.70;;;10.10;99.90;;;;;;5014533;28;20188;-63
2023/10/30 07:01:02;;;;;;;12.82;2.65;;;10.20;99.90;;;;;;5032078;28;20172;-66
2023/10/30 07:03:28;;;;;;;15.05;2.85;;;10.30;99.90;;;;;;5031793;28;20175;-68
2023/10/30 07:05:54;;;;;;;12.77;2.55;;;10.30;99.90;;;;;;5013717;28;20601;-62
2023/10/30 07:08:20;;;;;;;12.88;2.80;;;10.30;99.90;;;;;;5031912;28;20202;-60
2023/10/30 07:10:46;;;;;;;18.23;2.97;;;10.40;99.90;;;;;;5031863;28;20654;-62
2023/10/30 07:13:13;;;;;;;17.60;4.10;;;10.40;99.90;;;;;;5032326;28;20267;-65
2023/10/30 07:15:39;;;;;;;18.92;3.45;;;10.50;99.90;;;;;;5014361;28;20181;-64
2023/10/30 07:18:05;;;;;;;16.38;3.00;;;10.50;99.90;;;;;;5032153;28;20229;-67
2023/10/30 07:20:31;;;;;;;14.98;3.35;;;10.60;99.90;;;;;;5031899;28;20183;-65
2023/10/30 07:22:57;;;;;;;15.70;3.30;;;10.60;99.90;;;;;;5031946;28;20250;-61
2023/10/30 07:25:23;;;;;;;17.80;2.95;;;10.70;99.90;;;;;;5030474;28;20199;-63
2023/10/30 07:27:49;;;;;;;13.38;2.83;;;10.70;99.90;;;;;;5032051;28;20188;-65
2023/10/30 07:30:15;;;;;;;16.90;2.85;;;10.80;99.90;;;;;;5030388;28;20569;-64
2023/10/30 07:32:41;;;;;;;15.77;2.90;;;10.90;99.90;;;;;;5030238;28;20195;-66
2023/10/30 07:35:07;;;;;;;13.00;2.80;;;10.90;99.90;;;;;;5031528;28;20190;-60
2023/10/30 07:37:35;;;;;;;14.90;3.78;;;11.00;99.90;;;;;;5031355;28;20219;-65
2023/10/30 07:40:02;;;;;;;14.48;2.97;;;11.00;99.90;;;;;;5013456;28;20628;-61
2023/10/30 07:42:28;;;;;;;14.82;3.30;;;11.10;99.90;;;;;;4997612;28;20187;-60
2023/10/30 07:44:54;;;;;;;13.38;2.78;;;11.10;99.90;;;;;;5031613;28;20190;-64
2023/10/30 07:47:20;;;;;;;13.43;3.13;;;11.20;99.90;;;;;;5031419;28;20180;-64
2023/10/30 07:49:46;;;;;;;18.15;2.72;;;11.30;99.90;;;;;;5031409;28;20628;-65
2023/10/30 07:52:12;;;;;;;18.67;3.08;;;11.30;99.90;;;;;;5031218;28;20591;-62
2023/10/30 07:54:38;;;;;;;12.85;3.15;;;11.40;99.90;;;;;;5014155;28;20638;-65
2023/10/30 07:57:04;;;;;;;14.05;3.45;;;11.60;99.90;;;;;;5014305;28;20239;-61
2023/10/30 07:59:32;;;;;;;12.48;2.80;;;11.60;99.90;;;;;;5031712;28;20196;-61
2023/10/30 08:01:58;;;;;;;11.98;2.67;;;11.70;99.90;;;;;;5031322;28;20207;-65
2023/10/30 08:04:24;;;;;;;13.40;2.80;;;11.80;99.90;;;;;;5031090;28;20195;-61
2023/10/30 08:06:50;;;;;;;15.35;2.95;;;11.90;99.90;;;;;;5013632;28;20204;-68
2023/10/30 08:09:16;;;;;;;10.70;2.70;;;12.00;99.90;;;;;;5031204;28;20709;-64
2023/10/30 08:11:42;;;;;;;15.32;3.10;;;12.10;99.90;;;;;;5031166;28;20203;-66
2023/10/30 08:14:09;;;;;;;14.88;3.00;;;12.10;99.90;;;;;;5031270;28;20200;-62
2023/10/30 08:16:35;;;;;;;16.55;2.92;;;12.20;99.90;;;;;;5030886;28;20262;-61
2023/10/30 08:19:02;;;;;;;10.57;2.60;;;12.20;99.90;;;;;;5031155;28;20199;-62
2023/10/30 08:21:28;;;;;;;16.80;3.03;;;12.20;99.90;;;;;;5031841;28;20267;-62
2023/10/30 08:23:54;;;;;;;9.88;2.80;;;12.20;99.90;;;;;;5034922;28;20222;-68
2023/10/30 08:26:20;;;;;;;13.32;2.72;;;12.20;99.90;;;;;;5017224;28;20560;-66
2023/10/30 08:28:46;;;;;;;14.07;3.20;;;12.20;99.90;;;;;;5017379;28;20642;-66
2023/10/30 08:31:15;;;;;;;13.48;2.90;;;12.20;99.90;;;;;;5017202;28;20188;-60
2023/10/30 08:33:41;;;;;;;11.93;2.60;;;12.20;99.90;;;;;;5016595;28;20198;-62
2023/10/30 08:36:07;;;;;;;13.90;2.92;;;12.20;99.90;;;;;;5034589;28;20211;-66
2023/10/30 08:38:33;;;;;;;16.52;2.92;;;12.30;99.90;;;;;;5034344;28;20192;-64
2023/10/30 08:40:59;;;;;;;12.82;2.72;;;12.30;99.90;;;;;;5034407;28;20208;-64
2023/10/30 08:43:25;;;;;;;19.55;2.92;;;12.30;99.90;;;;;;5016680;28;20257;-61
2023/10/30 08:45:51;;;;;;;15.13;3.00;;;12.30;99.90;;;;;;5034093;28;20190;-66
2023/10/30 08:48:16;;;;;;;15.82;2.83;;;12.40;99.90;;;;;;5034320;28;20213;-62
2023/10/30 08:50:43;;;;;;;11.05;2.72;;;12.40;99.90;;;;;;5034045;28;20649;-69
2023/10/30 08:53:09;;;;;;;11.75;3.10;;;12.40;99.90;;;;;;5016723;28;20199;-61
2023/10/30 08:55:34;;;;;;;13.75;2.55;;;12.40;99.90;;;;;;5016376;28;20184;-66
2023/10/30 08:58:00;;;;;;;13.77;3.00;;;12.50;99.90;;;;;;5016828;28;20298;-61
2023/10/30 09:00:26;;;;;;;19.77;3.03;;;12.50;99.90;;;;;;5034490;28;20246;-62
2023/10/30 09:02:52;;;;;;;16.42;2.50;;;12.50;99.90;;;;;;5034217;28;20283;-61
2023/10/30 09:05:18;;;;;;;17.13;3.13;;;12.60;99.90;;;;;;5016549;28;20226;-65
2023/10/30 09:07:46;;;;;;;15.80;2.50;;;12.60;99.90;;;;;;5034162;28;20188;-66
2023/10/30 09:10:12;;;;;;;12.32;2.92;;;12.60;99.90;;;;;;5034060;28;20251;-65
2023/10/30 09:12:38;;;;;;;12.50;2.75;;;12.70;99.90;;;;;;5016640;28;20582;-67
2023/10/30 09:15:05;;;;;;;19.98;3.60;;;12.80;99.90;;;;;;5034333;28;20242;-61
2023/10/30 09:17:30;;;;;;;15.35;2.60;;;12.90;99.90;;;;;;5033962;28;20208;-62
2023/10/30 09:19:57;;;;;;;14.82;2.97;;;12.90;99.90;;;;;;5033886;28;20259;-62
2023/10/30 09:22:23;;;;;;;14.40;3.78;;;13.00;99.90;;;;;;5033963;28;20629;-63
2023/10/30 09:24:49;;;;;;;18.65;3.17;;;13.00;99.90;;;;;;5034020;28;20210;-62
2023/10/30 09:27:15;;;;;;;15.93;2.80;;;13.10;99.90;;;;;;5016175;28;20176;-61
2023/10/30 09:29:41;;;;;;;14.45;3.08;;;13.10;99.90;;;;;;5034193;28;20215;-66
2023/10/30 09:32:07;;;;;;;13.88;2.80;;;13.10;99.90;;;;;;5015889;28;20202;-62
2023/10/30 09:34:34;;;;;;;13.50;3.10;;;13.10;99.90;;;;;;5033492;28;20180;-64
2023/10/30 09:37:00;;;;;;;19.50;3.17;;;13.10;99.90;;;;;;5033588;28;20276;-65
2023/10/30 09:39:26;;;;;;;12.40;2.65;;;13.10;99.90;;;;;;5016190;28;20180;-60
2023/10/30 09:41:59;;;;;;;10.27;3.10;;;13.10;99.90;;;;;;5033801;28;20180;-65
2023/10/30 09:44:26;;;;;;;13.88;3.00;;;13.10;99.90;;;;;;5034053;28;20208;-65
2023/10/30 09:46:53;;;;;;;13.43;2.80;;;13.10;99.90;;;;;;5032874;28;20190;-66
2023/10/30 09:49:20;;;;;;;10.95;2.75;;;13.20;99.90;;;;;;5033163;28;20668;-64
2023/10/30 09:51:48;;;;;;;13.15;2.75;;;13.20;99.90;;;;;;5033168;28;20200;-63
2023/10/30 09:54:16;;;;;;;11.43;2.63;;;13.30;99.90;;;;;;5015619;28;20386;-62
2023/10/30 09:56:44;;;;;;;13.13;3.22;;;13.30;99.90;;;;;;5015134;28;20216;-67
2023/10/30 09:59:16;;;;;;;15.27;2.55;;;13.40;99.90;;;;;;5015658;28;20218;-60
2023/10/30 10:01:42;;;;;;;14.25;2.80;;;13.40;99.90;;;;;;5033264;28;20600;-60
2023/10/30 10:04:08;;;;;;;11.60;2.70;;;13.50;99.90;;;;;;5032830;28;20259;-61
2023/10/30 10:06:34;;;;;;;16.30;3.05;;;13.50;99.90;;;;;;5032835;28;20184;-65
2023/10/30 10:09:04;;;;;;;18.08;2.80;;;13.60;99.90;;;;;;5032437;28;20304;-60
2023/10/30 10:11:34;;;;;;;17.67;3.08;;;13.60;99.90;;;;;;5014882;28;20192;-63
2023/10/30 10:14:01;;;;;;;12.32;2.63;;;13.70;99.90;;;;;;5015260;28;20215;-62
2023/10/30 10:16:29;;;;;;;13.40;2.58;;;13.70;99.90;;;;;;5032950;28;20222;-60
2023/10/30 10:18:55;;;;;;;18.42;2.90;;;13.80;99.90;;;;;;5032483;28;20180;-61
2023/10/30 10:21:22;;;;;;;12.02;2.28;;;13.80;99.90;;;;;;5032301;28;20180;-63
2023/10/30 10:23:48;;;;;;;11.80;2.63;;;13.90;99.90;;;;;;5015524;28;20198;-64
2023/10/30 10:26:15;;;;;;;19.38;3.05;;;14.00;99.90;;;;;;5032634;28;20187;-62
2023/10/30 10:28:47;;;;;;;12.18;2.38;;;14.10;99.90;;;;;;5032940;28;20179;-68
2023/10/30 10:31:14;;;;;;;21.23;3.00;;;14.10;99.90;;;;;;5032289;28;20173;-63
2023/10/30 10:33:40;;;;;;;15.27;2.65;;;14.20;99.90;;;;;;5014989;28;20176;-62
2023/10/30 10:36:07;;;;;;;13.80;2.90;;;14.30;99.90;;;;;;5031928;28;20556;-66
2023/10/30 10:38:33;;;;;;;14.60;2.85;;;14.40;99.90;;;;;;5032500;28;20180;-63
2023/10/30 10:41:00;;;;;;;15.75;2.92;;;14.40;99.90;;;;;;5032203;28;20195;-61
2023/10/30 10:43:27;;;;;;;16.30;2.95;;;14.50;99.90;;;;;;5014663;28;20180;-67
2023/10/30 10:45:55;;;;;;;19.13;3.15;;;14.60;99.90;;;;;;5031290;28;20192;-67
2023/10/30 10:48:23;;;;;;;16.85;2.95;;;14.70;99.90;;;;;;5031733;28;20202;-68
2023/10/30 10:50:49;;;;;;;17.25;2.85;;;14.80;99.90;;;;;;5032186;28;20183;-66
2023/10/30 10:53:21;;;;;;;12.98;2.67;;;14.90;99.90;;;;;;5014443;28;20187;-62
2023/10/30 10:55:49;;;;;;;12.50;2.60;;;15.00;99.90;;;;;;5032536;28;20195;-62
2023/10/30 10:58:41;;;;;;;15.13;2.70;;;15.00;99.90;;;;;;5031746;28;20234;-61
2023/10/30 11:01:10;;;;;;;17.63;3.05;;;15.10;99.90;;;;;;5014496;28;20183;-65
2023/10/30 11:03:37;;;;;;;14.20;2.60;;;15.20;99.90;;;;;;4997624;28;20262;-61
2023/10/30 11:06:06;;;;;;;12.82;2.72;;;15.30;99.90;;;;;;5014410;28;20184;-62
2023/10/30 11:08:35;;;;;;;12.05;2.88;;;15.40;99.90;;;;;;5014489;28;20180;-61
2023/10/30 11:11:56;;;;;;;11.90;2.78;;;15.50;99.90;;;;;;5032569;28;20309;-65
2023/10/30 11:14:47;;;;;;;16.90;2.78;;;15.50;99.90;;;;;;5006255;28;20187;-68
2023/10/30 11:17:13;;;;;;;12.93;2.72;;;15.60;99.90;;;;;;5031478;28;20203;-65
2023/10/30 11:19:39;;;;;;;16.98;2.92;;;15.60;99.90;;;;;;5014543;28;20208;-62
2023/10/30 11:22:05;;;;;;;14.23;3.17;;;15.70;99.90;;;;;;5031326;28;20577;-65
2023/10/30 11:24:39;;;;;;;11.75;2.50;;;15.70;99.90;;;;;;5031650;28;20573;-61
2023/10/30 11:27:26;;;;;;;14.45;3.08;;;15.60;99.90;;;;;;5031819;28;20238;-64
2023/10/30 11:29:56;;;;;;;16.02;3.00;;;15.60;99.90;;;;;;5013748;28;20206;-61
2023/10/30 11:32:24;;;;;;;11.93;2.90;;;15.60;99.90;;;;;;5013804;28;20542;-60
2023/10/30 11:34:50;;;;;;;11.05;2.60;;;15.50;99.90;;;;;;5013791;28;20691;-63
2023/10/30 11:37:20;;;;;;;14.25;2.75;;;15.50;99.90;;;;;;5014192;28;20215;-62
2023/10/30 11:39:49;;;;;;;16.35;2.67;;;15.50;99.90;;;;;;5031431;28;20160;-61
2023/10/30 11:42:24;;;;;;;15.07;2.80;;;15.50;99.90;;;;;;5031304;28;20674;-67
2023/10/30 11:45:11;;;;;;;19.60;3.30;;;15.40;99.90;;;;;;5031506;28;20180;-63
2023/10/30 11:47:37;;;;;;;15.75;2.95;;;15.30;99.90;;;;;;5026849;28;20188;-69
2023/10/30 11:50:04;;;;;;;13.65;3.08;;;15.20;99.90;;;;;;5013818;28;20640;-66
2023/10/30 11:52:33;;;;;;;18.20;3.00;;;15.20;99.90;;;;;;5013867;28;20188;-62
2023/10/30 11:55:07;;;;;;;16.60;2.75;;;15.10;99.90;;;;;;5013524;28;20172;-65
2023/10/30 11:57:34;;;;;;;12.73;3.00;;;15.10;99.90;;;;;;5034991;28;20203;-62
2023/10/30 12:00:01;;;;;;;13.90;2.67;;;15.10;99.90;;;;;;5034811;28;20176;-61
2023/10/30 12:02:27;;;;;;;16.73;2.95;;;15.10;99.90;;;;;;5035158;28;20203;-60
2023/10/30 12:04:53;;;;;;;12.60;3.30;;;15.10;99.90;;;;;;5035570;28;20184;-62
2023/10/30 12:07:19;;;;;;;13.35;2.90;;;15.10;99.90;;;;;;5033587;28;20176;-68
2023/10/30 12:09:45;;;;;;;18.65;3.20;;;15.10;99.90;;;;;;5034720;28;20303;-62
2023/10/30 12:12:11;;;;;;;11.63;2.65;;;15.20;99.90;;;;;;5017380;28;20188;-61
2023/10/30 12:14:38;;;;;;;14.43;3.97;;;15.20;99.90;;;;;;5033806;28;20331;-66
2023/10/30 12:17:04;;;;;;;15.05;3.00;;;15.10;99.90;;;;;;5034998;28;20212;-65
2023/10/30 12:19:30;;;;;;;16.55;2.70;;;15.10;99.90;;;;;;5034792;28;20663;-62
2023/10/30 12:21:57;;;;;;;11.45;2.72;;;15.10;99.90;;;;;;5000748;28;20172;-67
2023/10/30 12:24:25;;;;;;;20.92;5.80;;;15.10;99.90;;;;;;5034331;28;20182;-66
2023/10/30 12:26:51;;;;;;;13.30;3.05;;;15.10;99.90;;;;;;5034885;28;20259;-69
2023/10/30 12:29:21;;;;;;;17.95;2.88;;;15.00;99.90;;;;;;5033119;28;20271;-61
2023/10/30 12:32:06;;;;;;;15.80;3.05;;;15.00;99.90;;;;;;5000784;28;20180;-63
2023/10/30 12:34:36;;;;;;;12.68;3.38;;;15.00;99.90;;;;;;5035104;28;20171;-64
2023/10/30 12:37:17;;;;;;;13.80;3.78;;;15.00;99.90;;;;;;5033971;28;20219;-68
2023/10/30 12:39:59;;;;;;;17.38;2.90;;;15.00;99.90;;;;;;5034234;28;20255;-62